sensor_id;sensor_type;location;lat;lon;timestamp;pressure;altitude;pressure_sealevel;temperature;humidity
82033;BME280;71595;52.180;4.512;2023-07-28T00:01:08;100546.19;;;17.81;88.07
82033;BME280;71595;52.180;4.512;2023-07-28T00:03:33;100544.63;;;17.79;88.29
82033;BME280;71595;52.180;4.512;2023-07-28T00:05:59;100549.38;;;17.79;88.03
82033;BME280;71595;52.180;4.512;2023-07-28T00:08:24;100542.63;;;17.80;88.33
82033;BME280;71595;52.180;4.512;2023-07-28T00:10:49;100539.03;;;17.79;88.37
82033;BME280;71595;52.180;4.512;2023-07-28T00:13:15;100526.25;;;17.78;88.43
82033;BME280;71595;52.180;4.512;2023-07-28T00:15:40;100531.84;;;17.78;88.27
82033;BME280;71595;52.180;4.512;2023-07-28T00:18:05;100539.03;;;17.79;88.17
82033;BME280;71595;52.180;4.512;2023-07-28T00:20:31;100539.81;;;17.80;88.36
82033;BME280;71595;52.180;4.512;2023-07-28T00:22:56;100539.03;;;17.79;88.33
82033;BME280;71595;52.180;4.512;2023-07-28T00:25:22;100537.81;;;17.81;88.24
82033;BME280;71595;52.180;4.512;2023-07-28T00:27:47;100539.81;;;17.84;88.09
82033;BME280;71595;52.180;4.512;2023-07-28T00:30:12;100548.19;;;17.84;88.18
82033;BME280;71595;52.180;4.512;2023-07-28T00:32:38;100537.84;;;17.84;88.25
82033;BME280;71595;52.180;4.512;2023-07-28T00:35:04;100536.63;;;17.85;88.30
82033;BME280;71595;52.180;4.512;2023-07-28T00:37:29;100549.03;;;17.84;88.20
82033;BME280;71595;52.180;4.512;2023-07-28T00:39:54;100539.81;;;17.84;88.49
82033;BME280;71595;52.180;4.512;2023-07-28T00:42:20;100536.63;;;17.82;88.81
82033;BME280;71595;52.180;4.512;2023-07-28T00:44:45;100542.22;;;17.82;88.66
82033;BME280;71595;52.180;4.512;2023-07-28T00:47:11;100539.81;;;17.80;89.04
82033;BME280;71595;52.180;4.512;2023-07-28T00:49:37;100532.63;;;17.79;88.88
82033;BME280;71595;52.180;4.512;2023-07-28T00:52:07;100536.25;;;17.79;89.14
82033;BME280;71595;52.180;4.512;2023-07-28T00:54:33;100538.63;;;17.77;89.21
82033;BME280;71595;52.180;4.512;2023-07-28T00:56:59;100532.63;;;17.79;89.16
82033;BME280;71595;52.180;4.512;2023-07-28T00:59:25;100533.84;;;17.78;89.01
82033;BME280;71595;52.180;4.512;2023-07-28T01:01:51;100525.47;;;17.78;89.17
82033;BME280;71595;52.180;4.512;2023-07-28T01:04:16;100531.84;;;17.78;89.20
82033;BME280;71595;52.180;4.512;2023-07-28T01:07:05;100536.25;;;17.79;89.13
82033;BME280;71595;52.180;4.512;2023-07-28T01:09:39;100532.63;;;17.79;89.11
82033;BME280;71595;52.180;4.512;2023-07-28T01:12:07;100525.47;;;17.82;88.95
82033;BME280;71595;52.180;4.512;2023-07-28T01:14:33;100530.25;;;17.81;89.01
82033;BME280;71595;52.180;4.512;2023-07-28T01:16:58;100531.03;;;17.82;88.85
82033;BME280;71595;52.180;4.512;2023-07-28T01:19:24;100536.63;;;17.82;89.03
82033;BME280;71595;52.180;4.512;2023-07-28T01:27:51;100547.81;;;17.82;89.29
82033;BME280;71595;52.180;4.512;2023-07-28T01:30:17;100545.81;;;17.82;89.29
82033;BME280;71595;52.180;4.512;2023-07-28T01:32:44;100540.63;;;17.81;89.26
82033;BME280;71595;52.180;4.512;2023-07-28T01:35:10;100541.81;;;17.83;89.40
82033;BME280;71595;52.180;4.512;2023-07-28T01:37:35;100543.03;;;17.86;88.95
82033;BME280;71595;52.180;4.512;2023-07-28T01:40:01;100541.03;;;17.86;88.99
82033;BME280;71595;52.180;4.512;2023-07-28T01:42:33;100541.44;;;17.88;88.83
82033;BME280;71595;52.180;4.512;2023-07-28T01:44:59;100539.84;;;17.87;88.90
82033;BME280;71595;52.180;4.512;2023-07-28T01:47:24;100543.44;;;17.88;88.95
82033;BME280;71595;52.180;4.512;2023-07-28T01:49:50;100543.03;;;17.86;89.25
82033;BME280;71595;52.180;4.512;2023-07-28T01:52:16;100544.22;;;17.85;89.33
82033;BME280;71595;52.180;4.512;2023-07-28T01:54:41;100551.00;;;17.84;89.23
82033;BME280;71595;52.180;4.512;2023-07-28T01:57:06;100549.03;;;17.84;89.19
82033;BME280;71595;52.180;4.512;2023-07-28T01:59:47;100545.81;;;17.86;89.23
82033;BME280;71595;52.180;4.512;2023-07-28T02:02:12;100547.41;;;17.87;89.38
82033;BME280;71595;52.180;4.512;2023-07-28T02:04:38;100546.22;;;17.88;89.32
82033;BME280;71595;52.180;4.512;2023-07-28T02:07:03;100546.63;;;17.86;89.42
82033;BME280;71595;52.180;4.512;2023-07-28T02:09:29;100546.63;;;17.86;89.45
82033;BME280;71595;52.180;4.512;2023-07-28T02:11:54;100551.81;;;17.88;89.24
82033;BME280;71595;52.180;4.512;2023-07-28T02:14:19;100545.06;;;17.89;89.51
82033;BME280;71595;52.180;4.512;2023-07-28T02:16:45;100545.84;;;17.89;89.32
82033;BME280;71595;52.180;4.512;2023-07-28T02:19:10;100545.44;;;17.87;89.46
82033;BME280;71595;52.180;4.512;2023-07-28T02:21:36;100542.28;;;17.89;89.27
82033;BME280;71595;52.180;4.512;2023-07-28T02:24:01;100544.25;;;17.88;89.33
82033;BME280;71595;52.180;4.512;2023-07-28T02:26:26;100544.66;;;17.90;89.37
82033;BME280;71595;52.180;4.512;2023-07-28T02:28:52;100555.03;;;17.90;89.36
82033;BME280;71595;52.180;4.512;2023-07-28T02:31:17;100545.06;;;17.89;89.46
82033;BME280;71595;52.180;4.512;2023-07-28T02:33:45;100540.25;;;17.89;89.26
82033;BME280;71595;52.180;4.512;2023-07-28T02:36:11;100538.25;;;17.90;89.48
82033;BME280;71595;52.180;4.512;2023-07-28T02:38:36;100541.44;;;17.88;89.32
82033;BME280;71595;52.180;4.512;2023-07-28T02:41:02;100546.66;;;17.90;89.71
82033;BME280;71595;52.180;4.512;2023-07-28T02:43:29;100547.03;;;17.92;89.42
82033;BME280;71595;52.180;4.512;2023-07-28T02:45:55;100549.44;;;17.90;89.45
82033;BME280;71595;52.180;4.512;2023-07-28T02:48:21;100551.84;;;17.91;89.48
82033;BME280;71595;52.180;4.512;2023-07-28T02:50:47;100549.84;;;17.88;89.92
82033;BME280;71595;52.180;4.512;2023-07-28T02:53:14;100552.22;;;17.93;89.64
82033;BME280;71595;52.180;4.512;2023-07-28T02:55:43;100549.44;;;17.93;89.51
82033;BME280;71595;52.180;4.512;2023-07-28T02:58:10;100557.81;;;17.93;89.52
82033;BME280;71595;52.180;4.512;2023-07-28T03:00:42;100552.22;;;17.93;89.52
82033;BME280;71595;52.180;4.512;2023-07-28T03:03:10;100559.03;;;17.92;89.64
82033;BME280;71595;52.180;4.512;2023-07-28T03:05:36;100553.44;;;17.89;89.70
82033;BME280;71595;52.180;4.512;2023-07-28T03:08:05;100562.22;;;17.91;89.90
82033;BME280;71595;52.180;4.512;2023-07-28T03:10:31;100564.63;;;17.92;89.78
82033;BME280;71595;52.180;4.512;2023-07-28T03:12:56;100563.00;;;17.91;89.87
82033;BME280;71595;52.180;4.512;2023-07-28T03:15:22;100558.22;;;17.92;89.75
82033;BME280;71595;52.180;4.512;2023-07-28T03:17:48;100568.19;;;17.93;89.68
82033;BME280;71595;52.180;4.512;2023-07-28T03:20:13;100557.81;;;17.93;89.77
82033;BME280;71595;52.180;4.512;2023-07-28T03:22:39;100562.59;;;17.93;89.78
82033;BME280;71595;52.180;4.512;2023-07-28T03:25:04;100562.22;;;17.94;89.88
82033;BME280;71595;52.180;4.512;2023-07-28T03:27:30;100560.22;;;17.95;89.68
82033;BME280;71595;52.180;4.512;2023-07-28T03:29:55;100569.81;;;17.98;89.56
82033;BME280;71595;52.180;4.512;2023-07-28T03:32:21;100569.41;;;17.95;89.63
82033;BME280;71595;52.180;4.512;2023-07-28T03:38:08;100573.38;;;17.94;89.86
82033;BME280;71595;52.180;4.512;2023-07-28T03:40:33;100566.19;;;17.93;89.89
82033;BME280;71595;52.180;4.512;2023-07-28T03:42:59;100573.78;;;17.93;89.79
82033;BME280;71595;52.180;4.512;2023-07-28T03:45:24;100582.94;;;17.93;89.79
82033;BME280;71595;52.180;4.512;2023-07-28T03:47:50;100589.34;;;17.94;90.06
82033;BME280;71595;52.180;4.512;2023-07-28T03:50:15;100587.75;;;17.93;89.77
82033;BME280;71595;52.180;4.512;2023-07-28T03:52:40;100584.56;;;17.94;89.78
82033;BME280;71595;52.180;4.512;2023-07-28T03:55:06;100577.78;;;17.95;89.93
82033;BME280;71595;52.180;4.512;2023-07-28T03:57:33;100575.78;;;17.89;89.83
82033;BME280;71595;52.180;4.512;2023-07-28T03:59:58;100584.94;;;17.96;89.52
82033;BME280;71595;52.180;4.512;2023-07-28T04:02:24;100594.16;;;17.97;89.69
82033;BME280;71595;52.180;4.512;2023-07-28T04:04:56;100594.56;;;17.95;89.60
82033;BME280;71595;52.180;4.512;2023-07-28T04:07:21;100590.94;;;17.95;89.50
82033;BME280;71595;52.180;4.512;2023-07-28T04:09:47;100593.72;;;17.95;89.67
82033;BME280;71595;52.180;4.512;2023-07-28T04:12:12;100599.31;;;17.95;89.58
82033;BME280;71595;52.180;4.512;2023-07-28T04:14:38;100592.53;;;17.96;89.68
82033;BME280;71595;52.180;4.512;2023-07-28T04:17:03;100585.78;;;17.97;89.82
82033;BME280;71595;52.180;4.512;2023-07-28T04:19:29;100591.75;;;17.95;89.91
82033;BME280;71595;52.180;4.512;2023-07-28T04:21:56;100588.56;;;17.97;89.75
82033;BME280;71595;52.180;4.512;2023-07-28T04:24:21;100586.97;;;17.96;89.76
82033;BME280;71595;52.180;4.512;2023-07-28T04:26:46;100590.16;;;17.98;89.58
82033;BME280;71595;52.180;4.512;2023-07-28T04:29:14;100592.94;;;17.98;89.66
82033;BME280;71595;52.180;4.512;2023-07-28T04:31:39;100590.16;;;17.98;89.75
82033;BME280;71595;52.180;4.512;2023-07-28T04:34:05;100594.16;;;17.97;89.83
82033;BME280;71595;52.180;4.512;2023-07-28T04:36:30;100586.16;;;17.95;89.72
82033;BME280;71595;52.180;4.512;2023-07-28T04:38:55;100602.09;;;17.95;89.57
82033;BME280;71595;52.180;4.512;2023-07-28T04:41:21;100594.13;;;17.93;89.86
82033;BME280;71595;52.180;4.512;2023-07-28T04:43:46;100594.13;;;17.93;89.96
82033;BME280;71595;52.180;4.512;2023-07-28T04:46:11;100586.97;;;17.96;89.88
82033;BME280;71595;52.180;4.512;2023-07-28T04:48:37;100591.34;;;17.97;89.79
82033;BME280;71595;52.180;4.512;2023-07-28T04:51:02;100588.56;;;17.97;89.69
82033;BME280;71595;52.180;4.512;2023-07-28T04:53:27;100591.34;;;17.97;89.80
82033;BME280;71595;52.180;4.512;2023-07-28T04:55:53;100587.75;;;17.96;89.90
82033;BME280;71595;52.180;4.512;2023-07-28T04:58:18;100595.72;;;17.98;90.00
82033;BME280;71595;52.180;4.512;2023-07-28T05:00:43;100585.34;;;17.95;89.88
82033;BME280;71595;52.180;4.512;2023-07-28T05:03:09;100595.72;;;17.98;89.80
82033;BME280;71595;52.180;4.512;2023-07-28T05:05:34;100602.13;;;17.99;89.73
82033;BME280;71595;52.180;4.512;2023-07-28T05:07:59;100597.34;;;17.99;89.83
82033;BME280;71595;52.180;4.512;2023-07-28T05:10:25;100599.34;;;17.99;89.73
82033;BME280;71595;52.180;4.512;2023-07-28T05:12:50;100610.13;;;18.00;89.74
82033;BME280;71595;52.180;4.512;2023-07-28T05:15:17;100603.72;;;18.00;89.73
82033;BME280;71595;52.180;4.512;2023-07-28T05:17:43;100612.50;;;17.98;89.64
82033;BME280;71595;52.180;4.512;2023-07-28T05:20:08;100614.88;;;18.00;89.72
82033;BME280;71595;52.180;4.512;2023-07-28T05:22:34;100620.47;;;18.00;89.80
82033;BME280;71595;52.180;4.512;2023-07-28T05:24:59;100618.91;;;18.02;89.62
82033;BME280;71595;52.180;4.512;2023-07-28T05:27:24;100619.69;;;18.03;89.66
82033;BME280;71595;52.180;4.512;2023-07-28T05:29:50;100625.28;;;18.03;89.57
82033;BME280;71595;52.180;4.512;2023-07-28T05:32:15;100616.91;;;18.03;89.64
82033;BME280;71595;52.180;4.512;2023-07-28T05:34:44;100618.91;;;18.02;89.86
82033;BME280;71595;52.180;4.512;2023-07-28T05:37:10;100613.31;;;18.02;89.81
82033;BME280;71595;52.180;4.512;2023-07-28T05:39:35;100624.88;;;18.04;89.71
82033;BME280;71595;52.180;4.512;2023-07-28T05:42:01;100624.88;;;18.04;89.70
82033;BME280;71595;52.180;4.512;2023-07-28T05:44:26;100626.50;;;18.05;89.55
82033;BME280;71595;52.180;4.512;2023-07-28T05:46:52;100630.09;;;18.09;89.56
82033;BME280;71595;52.180;4.512;2023-07-28T05:49:18;100625.31;;;18.10;89.28
82033;BME280;71595;52.180;4.512;2023-07-28T05:51:43;100629.31;;;18.12;89.02
82033;BME280;71595;52.180;4.512;2023-07-28T05:54:08;100629.31;;;18.12;89.02
82033;BME280;71595;52.180;4.512;2023-07-28T05:56:34;100624.50;;;18.13;88.85
82033;BME280;71595;52.180;4.512;2023-07-28T05:58:59;100629.31;;;18.12;88.94
82033;BME280;71595;52.180;4.512;2023-07-28T06:01:25;100624.50;;;18.13;88.96
82033;BME280;71595;52.180;4.512;2023-07-28T06:03:52;100626.50;;;18.12;88.94
82033;BME280;71595;52.180;4.512;2023-07-28T06:06:20;100631.72;;;18.14;88.76
82033;BME280;71595;52.180;4.512;2023-07-28T06:08:47;100636.06;;;18.15;88.97
82033;BME280;71595;52.180;4.512;2023-07-28T06:11:12;100638.91;;;18.19;89.07
82033;BME280;71595;52.180;4.512;2023-07-28T06:13:37;100642.09;;;18.21;89.09
82033;BME280;71595;52.180;4.512;2023-07-28T06:16:03;100642.09;;;18.21;88.95
82033;BME280;71595;52.180;4.512;2023-07-28T06:18:28;100643.69;;;18.22;88.94
82033;BME280;71595;52.180;4.512;2023-07-28T06:20:54;100643.69;;;18.22;88.72
82033;BME280;71595;52.180;4.512;2023-07-28T06:23:19;100652.47;;;18.24;88.66
82033;BME280;71595;52.180;4.512;2023-07-28T06:25:44;100648.06;;;18.23;88.54
82033;BME280;71595;52.180;4.512;2023-07-28T06:28:11;100650.88;;;18.23;88.67
82033;BME280;71595;52.180;4.512;2023-07-28T06:30:37;100654.09;;;18.25;88.84
82033;BME280;71595;52.180;4.512;2023-07-28T06:33:05;100664.44;;;18.24;88.67
82033;BME280;71595;52.180;4.512;2023-07-28T06:35:31;100666.06;;;18.22;89.11
82033;BME280;71595;52.180;4.512;2023-07-28T06:37:56;100669.25;;;18.24;88.88
82033;BME280;71595;52.180;4.512;2023-07-28T06:40:22;100670.03;;;18.24;88.93
82033;BME280;71595;52.180;4.512;2023-07-28T06:42:47;100679.22;;;18.25;88.65
82033;BME280;71595;52.180;4.512;2023-07-28T06:45:13;100679.63;;;18.23;88.45
82033;BME280;71595;52.180;4.512;2023-07-28T06:47:39;100677.22;;;18.25;88.76
82033;BME280;71595;52.180;4.512;2023-07-28T06:50:05;100682.03;;;18.28;88.77
82033;BME280;71595;52.180;4.512;2023-07-28T06:52:30;100690.03;;;18.30;88.44
82033;BME280;71595;52.180;4.512;2023-07-28T06:54:56;100690.41;;;18.32;88.54
82033;BME280;71595;52.180;4.512;2023-07-28T06:57:21;100688.44;;;18.32;88.58
82033;BME280;71595;52.180;4.512;2023-07-28T06:59:48;100694.81;;;18.33;88.54
82033;BME280;71595;52.180;4.512;2023-07-28T07:02:14;100686.44;;;18.33;88.31
82033;BME280;71595;52.180;4.512;2023-07-28T07:04:39;100703.59;;;18.35;88.62
82033;BME280;71595;52.180;4.512;2023-07-28T07:07:05;100694.81;;;18.37;88.32
82033;BME280;71595;52.180;4.512;2023-07-28T07:09:30;100696.41;;;18.38;88.59
82033;BME280;71595;52.180;4.512;2023-07-28T07:11:56;100697.63;;;18.40;88.50
82033;BME280;71595;52.180;4.512;2023-07-28T07:14:21;100695.63;;;18.41;88.21
82033;BME280;71595;52.180;4.512;2023-07-28T07:16:46;100706.81;;;18.44;88.01
82033;BME280;71595;52.180;4.512;2023-07-28T07:19:12;100695.63;;;18.44;87.27
82033;BME280;71595;52.180;4.512;2023-07-28T07:21:38;100705.63;;;18.45;87.46
82033;BME280;71595;52.180;4.512;2023-07-28T07:24:04;100707.19;;;18.46;87.51
82033;BME280;71595;52.180;4.512;2023-07-28T07:26:29;100706.00;;;18.47;87.43
82033;BME280;71595;52.180;4.512;2023-07-28T07:28:56;100722.81;;;18.55;87.41
82033;BME280;71595;52.180;4.512;2023-07-28T07:31:22;100717.59;;;18.57;87.59
82033;BME280;71595;52.180;4.512;2023-07-28T07:33:47;100718.81;;;18.56;87.07
82033;BME280;71595;52.180;4.512;2023-07-28T07:36:13;100717.22;;;18.55;87.06
82033;BME280;71595;52.180;4.512;2023-07-28T07:38:39;100722.81;;;18.55;87.01
82033;BME280;71595;52.180;4.512;2023-07-28T07:41:06;100722.41;;;18.56;87.07
82033;BME280;71595;52.180;4.512;2023-07-28T07:43:32;100723.19;;;18.60;86.76
82033;BME280;71595;52.180;4.512;2023-07-28T07:45:57;100722.81;;;18.62;86.60
82033;BME280;71595;52.180;4.512;2023-07-28T07:48:22;100726.03;;;18.64;86.42
82033;BME280;71595;52.180;4.512;2023-07-28T07:50:48;100727.22;;;18.63;86.16
82033;BME280;71595;52.180;4.512;2023-07-28T07:53:13;100734.41;;;18.64;85.97
82033;BME280;71595;52.180;4.512;2023-07-28T07:55:39;100727.59;;;18.65;85.87
82033;BME280;71595;52.180;4.512;2023-07-28T07:58:04;100733.63;;;18.67;85.33
82033;BME280;71595;52.180;4.512;2023-07-28T08:00:30;100739.59;;;18.73;85.41
82033;BME280;71595;52.180;4.512;2023-07-28T08:02:55;100738.41;;;18.77;85.23
82033;BME280;71595;52.180;4.512;2023-07-28T08:05:20;100740.81;;;18.82;85.49
82033;BME280;71595;52.180;4.512;2023-07-28T08:07:46;100745.25;;;18.87;85.14
82033;BME280;71595;52.180;4.512;2023-07-28T08:10:12;100744.06;;;18.92;84.75
82033;BME280;71595;52.180;4.512;2023-07-28T08:12:39;100749.25;;;18.97;84.35
82033;BME280;71595;52.180;4.512;2023-07-28T08:15:06;100749.22;;;19.04;84.18
82033;BME280;71595;52.180;4.512;2023-07-28T08:17:32;100752.03;;;19.04;84.26
82033;BME280;71595;52.180;4.512;2023-07-28T08:19:57;100751.66;;;19.09;83.90
82033;BME280;71595;52.180;4.512;2023-07-28T08:22:22;100739.63;;;19.09;84.05
82033;BME280;71595;52.180;4.512;2023-07-28T08:24:48;100742.84;;;19.21;83.65
82033;BME280;71595;52.180;4.512;2023-07-28T08:27:13;100747.63;;;19.25;83.79
82033;BME280;71595;52.180;4.512;2023-07-28T08:29:38;100747.63;;;19.28;83.80
82033;BME280;71595;52.180;4.512;2023-07-28T08:32:04;100758.03;;;19.31;82.97
82033;BME280;71595;52.180;4.512;2023-07-28T08:34:29;100749.19;;;19.36;82.92
82033;BME280;71595;52.180;4.512;2023-07-28T08:36:55;100754.81;;;19.40;82.43
82033;BME280;71595;52.180;4.512;2023-07-28T08:39:20;100752.41;;;19.42;82.64
82033;BME280;71595;52.180;4.512;2023-07-28T08:41:46;100758.00;;;19.42;82.84
82033;BME280;71595;52.180;4.512;2023-07-28T08:44:11;100759.59;;;19.43;82.88
82033;BME280;71595;52.180;4.512;2023-07-28T08:46:36;100763.59;;;19.42;82.47
82033;BME280;71595;52.180;4.512;2023-07-28T08:49:02;100764.00;;;19.48;82.29
82033;BME280;71595;52.180;4.512;2023-07-28T08:51:28;100767.59;;;19.48;81.95
82033;BME280;71595;52.180;4.512;2023-07-28T08:53:53;100763.56;;;19.49;81.22
82033;BME280;71595;52.180;4.512;2023-07-28T08:56:20;100778.78;;;19.48;81.07
82033;BME280;71595;52.180;4.512;2023-07-28T08:58:46;100778.00;;;19.48;81.29
82033;BME280;71595;52.180;4.512;2023-07-28T09:01:11;100779.59;;;19.45;80.90
82033;BME280;71595;52.180;4.512;2023-07-28T09:03:39;100774.78;;;19.46;81.23
82033;BME280;71595;52.180;4.512;2023-07-28T09:06:12;100786.00;;;19.46;80.58
82033;BME280;71595;52.180;4.512;2023-07-28T09:08:40;100786.81;;;19.46;80.81
82033;BME280;71595;52.180;4.512;2023-07-28T09:11:05;100783.59;;;19.44;81.25
82033;BME280;71595;52.180;4.512;2023-07-28T09:13:41;100784.41;;;19.41;81.49
82033;BME280;71595;52.180;4.512;2023-07-28T09:16:20;100787.19;;;19.41;81.29
82033;BME280;71595;52.180;4.512;2023-07-28T09:18:47;100793.19;;;19.39;81.72
82033;BME280;71595;52.180;4.512;2023-07-28T09:21:20;100789.22;;;19.37;81.71
82033;BME280;71595;52.180;4.512;2023-07-28T09:23:47;100790.41;;;19.32;81.35
82033;BME280;71595;52.180;4.512;2023-07-28T09:26:14;100795.19;;;19.32;81.78
82033;BME280;71595;52.180;4.512;2023-07-28T09:28:40;100796.03;;;19.32;81.92
82033;BME280;71595;52.180;4.512;2023-07-28T09:31:06;100800.81;;;19.35;82.04
82033;BME280;71595;52.180;4.512;2023-07-28T09:33:34;100795.22;;;19.35;82.06
82033;BME280;71595;52.180;4.512;2023-07-28T09:36:13;100794.41;;;19.35;81.73
82033;BME280;71595;52.180;4.512;2023-07-28T09:38:41;100801.59;;;19.36;81.77
82033;BME280;71595;52.180;4.512;2023-07-28T09:41:09;100803.22;;;19.37;81.61
82033;BME280;71595;52.180;4.512;2023-07-28T09:43:40;100809.63;;;19.34;81.30
82033;BME280;71595;52.180;4.512;2023-07-28T09:46:07;100803.19;;;19.33;81.21
82033;BME280;71595;52.180;4.512;2023-07-28T09:48:34;100797.19;;;19.35;81.08
82033;BME280;71595;52.180;4.512;2023-07-28T09:51:05;100808.81;;;19.37;81.56
82033;BME280;71595;52.180;4.512;2023-07-28T09:53:36;100804.41;;;19.39;81.31
82033;BME280;71595;52.180;4.512;2023-07-28T09:56:03;100808.00;;;19.40;81.04
82033;BME280;71595;52.180;4.512;2023-07-28T09:58:33;100809.59;;;19.41;81.17
82033;BME280;71595;52.180;4.512;2023-07-28T10:01:02;100812.41;;;19.41;80.82
82033;BME280;71595;52.180;4.512;2023-07-28T10:03:29;100814.00;;;19.42;80.81
82033;BME280;71595;52.180;4.512;2023-07-28T10:05:55;100815.63;;;19.43;80.78
82033;BME280;71595;52.180;4.512;2023-07-28T10:08:21;100812.81;;;19.47;80.54
82033;BME280;71595;52.180;4.512;2023-07-28T10:10:48;100815.19;;;19.52;80.74
82033;BME280;71595;52.180;4.512;2023-07-28T10:13:21;100821.19;;;19.57;80.47
82033;BME280;71595;52.180;4.512;2023-07-28T10:15:47;100815.59;;;19.57;79.88
82033;BME280;71595;52.180;4.512;2023-07-28T10:18:15;100807.56;;;19.60;79.87
82033;BME280;71595;52.180;4.512;2023-07-28T10:20:43;100818.78;;;19.67;79.85
82033;BME280;71595;52.180;4.512;2023-07-28T10:23:13;100817.56;;;19.68;79.62
82033;BME280;71595;52.180;4.512;2023-07-28T10:25:40;100819.97;;;19.66;79.35
82033;BME280;71595;52.180;4.512;2023-07-28T10:28:07;100829.56;;;19.65;79.93
82033;BME280;71595;52.180;4.512;2023-07-28T10:30:37;100827.16;;;19.63;79.64
82033;BME280;71595;52.180;4.512;2023-07-28T10:33:03;100821.97;;;19.69;79.86
82033;BME280;71595;52.180;4.512;2023-07-28T10:35:29;100827.16;;;19.70;79.07
82033;BME280;71595;52.180;4.512;2023-07-28T10:37:57;100835.97;;;19.76;79.21
82033;BME280;71595;52.180;4.512;2023-07-28T10:40:33;100825.19;;;19.78;78.33
82033;BME280;71595;52.180;4.512;2023-07-28T10:43:00;100831.56;;;19.79;77.94
82033;BME280;71595;52.180;4.512;2023-07-28T10:45:28;100827.56;;;19.83;78.18
82033;BME280;71595;52.180;4.512;2023-07-28T10:47:55;100831.56;;;19.89;78.31
82033;BME280;71595;52.180;4.512;2023-07-28T10:50:23;100835.53;;;20.03;77.60
82033;BME280;71595;52.180;4.512;2023-07-28T10:52:48;100833.94;;;20.02;77.10
82033;BME280;71595;52.180;4.512;2023-07-28T10:55:20;100843.13;;;20.06;77.26
82033;BME280;71595;52.180;4.512;2023-07-28T10:57:46;100833.09;;;20.12;77.46
82033;BME280;71595;52.180;4.512;2023-07-28T11:00:15;100833.09;;;20.12;76.39
82033;BME280;71595;52.180;4.512;2023-07-28T11:02:45;100839.47;;;20.16;76.38
82033;BME280;71595;52.180;4.512;2023-07-28T11:05:13;100847.50;;;20.14;76.62
82033;BME280;71595;52.180;4.512;2023-07-28T11:07:48;100851.53;;;20.09;76.41
82033;BME280;71595;52.180;4.512;2023-07-28T11:10:14;100847.53;;;20.10;76.89
82033;BME280;71595;52.180;4.512;2023-07-28T11:12:44;100855.53;;;20.12;76.74
82033;BME280;71595;52.180;4.512;2023-07-28T11:15:13;100855.53;;;20.12;76.34
82033;BME280;71595;52.180;4.512;2023-07-28T11:17:40;100860.72;;;20.14;76.90
82033;BME280;71595;52.180;4.512;2023-07-28T11:20:27;100859.91;;;20.20;76.73
82033;BME280;71595;52.180;4.512;2023-07-28T11:22:58;100858.28;;;20.19;76.04
82033;BME280;71595;52.180;4.512;2023-07-28T11:25:26;100858.28;;;20.19;75.72
82033;BME280;71595;52.180;4.512;2023-07-28T11:27:52;100864.31;;;20.21;75.29
82033;BME280;71595;52.180;4.512;2023-07-28T11:30:19;100857.06;;;20.24;75.83
82033;BME280;71595;52.180;4.512;2023-07-28T11:32:47;100860.69;;;20.24;75.72
82033;BME280;71595;52.180;4.512;2023-07-28T11:35:16;100864.28;;;20.28;75.78
82033;BME280;71595;52.180;4.512;2023-07-28T11:37:45;100859.47;;;20.25;75.80
82033;BME280;71595;52.180;4.512;2023-07-28T11:40:11;100859.47;;;20.25;75.95
82033;BME280;71595;52.180;4.512;2023-07-28T11:42:38;100867.13;;;20.21;75.97
82033;BME280;71595;52.180;4.512;2023-07-28T11:45:07;100875.91;;;20.23;76.56
82033;BME280;71595;52.180;4.512;2023-07-28T11:47:33;100864.69;;;20.27;76.52
82033;BME280;71595;52.180;4.512;2023-07-28T11:49:58;100866.69;;;20.34;76.26
82033;BME280;71595;52.180;4.512;2023-07-28T11:52:31;100859.84;;;20.35;75.71
82033;BME280;71595;52.180;4.512;2023-07-28T11:54:58;100853.81;;;20.43;75.54
82033;BME280;71595;52.180;4.512;2023-07-28T11:57:25;100865.78;;;20.51;75.09
82033;BME280;71595;52.180;4.512;2023-07-28T11:59:51;100863.34;;;20.60;74.86
82033;BME280;71595;52.180;4.512;2023-07-28T12:02:24;100860.13;;;20.65;74.52
82033;BME280;71595;52.180;4.512;2023-07-28T12:04:50;100869.75;;;20.68;74.27
82033;BME280;71595;52.180;4.512;2023-07-28T12:07:18;100856.50;;;20.69;73.39
82033;BME280;71595;52.180;4.512;2023-07-28T12:09:47;100869.75;;;20.64;73.00
82033;BME280;71595;52.180;4.512;2023-07-28T12:12:25;100862.53;;;20.63;73.26
82033;BME280;71595;52.180;4.512;2023-07-28T12:14:59;100866.53;;;20.62;73.43
82033;BME280;71595;52.180;4.512;2023-07-28T12:17:29;100868.53;;;20.58;73.21
82033;BME280;71595;52.180;4.512;2023-07-28T12:20:06;100876.19;;;20.54;73.53
82033;BME280;71595;52.180;4.512;2023-07-28T12:22:45;100871.41;;;20.51;74.16
82033;BME280;71595;52.180;4.512;2023-07-28T12:25:11;100879.44;;;20.49;74.38
82033;BME280;71595;52.180;4.512;2023-07-28T12:27:37;100872.22;;;20.48;74.50
82033;BME280;71595;52.180;4.512;2023-07-28T12:30:03;100874.63;;;20.50;74.37
82033;BME280;71595;52.180;4.512;2023-07-28T12:32:28;100877.84;;;20.48;73.73
82033;BME280;71595;52.180;4.512;2023-07-28T12:38:07;100880.22;;;20.50;74.25
82033;BME280;71595;52.180;4.512;2023-07-28T12:40:33;100880.59;;;20.55;74.00
82033;BME280;71595;52.180;4.512;2023-07-28T12:43:00;100880.59;;;20.55;73.85
82033;BME280;71595;52.180;4.512;2023-07-28T12:45:26;100885.41;;;20.55;73.35
82033;BME280;71595;52.180;4.512;2023-07-28T12:47:52;100899.44;;;20.55;73.24
82033;BME280;71595;52.180;4.512;2023-07-28T12:50:19;100891.03;;;20.51;73.84
82033;BME280;71595;52.180;4.512;2023-07-28T12:52:46;100889.84;;;20.45;73.50
82033;BME280;71595;52.180;4.512;2023-07-28T12:55:11;100885.06;;;20.42;74.36
82033;BME280;71595;52.180;4.512;2023-07-28T12:57:36;100893.06;;;20.43;74.10
82033;BME280;71595;52.180;4.512;2023-07-28T13:00:02;100885.50;;;20.37;74.34